Keokuk Municipal Airport


Codes: KEOK/EOK
Name: Keokuk Municipal Airport
City: Keokuk
Country: United States
Elevation: 671 ft.
Website:
Wikipedia:

Photos at Keokuk Municipal Airport


   Photos courtesy of SpottingLog. You can add your own sightings and photos by signing up for a free trial today.



No photos found.

Weather at Keokuk Municipal Airport


Time (UTC)DescriptionTempratureWindCloud coverageVisibilityPressureHumidity
23-May-2024 21:00Few Clouds24°C9 mph, 24%10000m1012hPa52%
24-May-2024 00:00Scattered Clouds23°C7 mph, SE31%10000m1011hPa67%
24-May-2024 03:00Clear Sky18°C9 mph, SE0%10000m1009hPa92%
24-May-2024 06:00Few Clouds17°C9 mph, SE17%10000m1008hPa90%
24-May-2024 09:00Overcast Clouds19°C13 mph, SE100%10000m1006hPa83%
24-May-2024 12:00Moderate Rain18°C9 mph, SE100%10000m1005hPa96%
24-May-2024 15:00Overcast Clouds22°C16 mph, S100%10000m1005hPa90%
24-May-2024 18:00Light Rain25°C18 mph, S96%7452m1004hPa75%
24-May-2024 21:00Light Rain23°C16 mph, SW100%10000m1004hPa84%
25-May-2024 00:00Light Rain19°C9 mph, W85%10000m1005hPa85%
25-May-2024 03:00Scattered Clouds15°C9 mph, NW45%10000m1008hPa88%
25-May-2024 06:00Few Clouds12°C9 mph, NW23%10000m1011hPa89%
25-May-2024 09:00Clear Sky10°C7 mph, NW0%10000m1013hPa92%
25-May-2024 12:00Few Clouds11°C4 mph, N12%10000m1013hPa86%
25-May-2024 15:00Clear Sky17°C7 mph, NE4%10000m1013hPa58%
25-May-2024 18:00Clear Sky21°C7 mph, SE3%10000m1012hPa47%
25-May-2024 21:00Broken Clouds23°C11 mph, SE70%10000m1010hPa49%
26-May-2024 00:00Scattered Clouds20°C9 mph, SE45%10000m1008hPa69%
26-May-2024 03:00Overcast Clouds18°C13 mph, SE85%10000m1007hPa67%
26-May-2024 06:00Light Rain17°C16 mph, SE92%10000m1003hPa79%
26-May-2024 09:00Moderate Rain17°C13 mph, SE100%1786m999hPa92%
26-May-2024 12:00Heavy Intensity Rain20°C9 mph, SE100%8848m998hPa97%
26-May-2024 15:00Moderate Rain22°C11 mph, S100%10000m996hPa96%
26-May-2024 18:00Moderate Rain26°C18 mph, SW74%10000m995hPa79%
26-May-2024 21:00Light Rain23°C13 mph, NW47%10000m997hPa75%
27-May-2024 00:00Light Rain22°C13 mph, W40%10000m1000hPa82%
27-May-2024 03:00Light Rain17°C9 mph, W0%10000m1003hPa95%
27-May-2024 06:00Clear Sky15°C7 mph, NW0%10000m1005hPa97%
27-May-2024 09:00Clear Sky13°C7 mph, NW0%10000m1005hPa95%
27-May-2024 12:00Scattered Clouds14°C9 mph, NW32%10000m1007hPa89%
27-May-2024 15:00Light Rain15°C11 mph, NW99%10000m1009hPa82%
27-May-2024 18:00Broken Clouds19°C16 mph, NW72%10000m1011hPa65%
27-May-2024 21:00Broken Clouds19°C11 mph, NW74%10000m1011hPa68%
28-May-2024 00:00Scattered Clouds19°C9 mph, NW45%10000m1012hPa75%
28-May-2024 03:00Clear Sky14°C7 mph, NW0%10000m1014hPa90%
28-May-2024 06:00Clear Sky13°C7 mph, W0%10000m1014hPa91%
28-May-2024 09:00Clear Sky12°C7 mph, W0%10000m1015hPa92%
28-May-2024 12:00Clear Sky13°C7 mph, SW1%10000m1016hPa89%
28-May-2024 15:00Clear Sky20°C13 mph, W1%10000m1015hPa72%
28-May-2024 18:00Clear Sky23°C16 mph, SW0%10000m1013hPa61%